createdAt,value
2018-08-02T00:00:27.548Z,71.66
2018-08-02T00:01:27.535Z,71.85
2018-08-02T00:02:27.523Z,71.76
2018-08-02T00:03:27.486Z,71.85
2018-08-02T00:04:27.474Z,72.14
2018-08-02T00:05:27.445Z,71.95
2018-08-02T00:06:27.430Z,72.43
2018-08-02T00:07:28.019Z,72.24
2018-08-02T00:08:27.372Z,72.08
2018-08-02T00:09:27.381Z,71.85
2018-08-02T00:10:27.363Z,71.95
2018-08-02T00:11:27.306Z,72.05
2018-08-02T00:12:27.300Z,72.43
2018-08-02T00:13:27.284Z,72.24
2018-08-02T00:14:27.252Z,72.33
2018-08-02T00:15:27.443Z,72.24
2018-08-02T00:16:27.214Z,72.24
2018-08-02T00:17:27.208Z,72.43
2018-08-02T00:18:27.150Z,72.72
2018-08-02T00:19:27.157Z,72.81
2018-08-02T00:20:27.127Z,72.81
2018-08-02T00:21:27.092Z,72.91
2018-08-02T00:22:27.067Z,72.72
2018-08-02T00:23:27.061Z,72.91
2018-08-02T00:24:27.020Z,72.91
2018-08-02T00:25:27.010Z,72.91
2018-08-02T00:26:27.002Z,73.10
2018-08-02T00:27:26.963Z,73.39
2018-08-02T00:28:26.928Z,73.20
2018-08-02T00:29:26.912Z,73.10
2018-08-02T00:30:26.877Z,73.36
2018-08-02T00:31:26.885Z,74.13
2018-08-02T00:32:26.861Z,73.65
2018-08-02T00:33:26.830Z,73.65
2018-08-02T00:34:26.799Z,74.13
2018-08-02T00:35:26.803Z,73.94
2018-08-02T00:36:26.753Z,73.74
2018-08-02T00:37:26.740Z,73.94
2018-08-02T00:38:26.707Z,74.41
2018-08-02T00:39:26.679Z,74.41
2018-08-02T00:40:26.675Z,73.74
2018-08-02T00:41:26.675Z,74.41
2018-08-02T00:42:26.624Z,73.94
2018-08-02T00:43:26.598Z,74.41
2018-08-02T00:44:26.587Z,74.45
2018-08-02T00:45:26.579Z,74.61
2018-08-02T00:46:26.520Z,74.32
2018-08-02T00:47:26.522Z,73.94
2018-08-02T00:48:26.516Z,73.74
2018-08-02T00:49:26.449Z,74.51
2018-08-02T00:50:26.454Z,74.61
2018-08-02T00:51:26.437Z,74.71
2018-08-02T00:52:26.429Z,74.41
2018-08-02T00:53:26.377Z,74.80
2018-08-02T00:54:26.360Z,75.09
2018-08-02T00:55:26.348Z,75.28
2018-08-02T00:56:26.310Z,75.09
2018-08-02T00:57:26.294Z,75.09
2018-08-02T00:58:26.293Z,75.09
2018-08-02T00:59:26.278Z,75.09
2018-08-02T01:00:26.215Z,75.57
2018-08-02T01:01:26.207Z,75.28
2018-08-02T01:02:26.193Z,75.48
2018-08-02T01:03:26.138Z,75.96
2018-08-02T01:04:26.138Z,75.76
2018-08-02T01:05:26.117Z,75.76
2018-08-02T01:06:26.107Z,76.15
2018-08-02T01:07:26.051Z,76.15
2018-08-02T01:08:26.074Z,76.25
2018-08-02T01:09:26.046Z,76.34
2018-08-02T01:10:25.993Z,76.44
2018-08-02T01:11:25.964Z,76.53
2018-08-02T01:12:25.983Z,76.63
2018-08-02T01:13:25.960Z,76.53
2018-08-02T01:14:25.907Z,76.34
2018-08-02T01:15:25.893Z,76.25
2018-08-02T01:16:25.890Z,76.63
2018-08-02T01:17:25.903Z,76.73
2018-08-02T01:18:25.836Z,76.25
2018-08-02T01:19:25.862Z,76.15
2018-08-02T01:20:25.867Z,76.53
2018-08-02T01:21:25.791Z,76.53
2018-08-02T01:22:25.777Z,76.34
2018-08-02T01:23:25.840Z,77.11
2018-08-02T01:24:25.800Z,76.88
2018-08-02T01:25:25.867Z,77.17
2018-08-02T01:26:25.658Z,77.17
2018-08-02T01:27:25.608Z,77.36
2018-08-02T01:28:25.590Z,77.56
2018-08-02T01:29:25.607Z,77.46
2018-08-02T01:30:26.245Z,77.26
2018-08-02T01:31:27.509Z,77.17
2018-08-02T01:32:26.320Z,77.36
2018-08-02T01:33:26.258Z,77.56
2018-08-02T01:34:26.938Z,77.46
2018-08-02T01:35:27.187Z,77.46
2018-08-02T01:36:26.905Z,77.46
2018-08-02T01:37:27.429Z,78.23
2018-08-02T01:38:28.043Z,78.03
2018-08-02T01:39:27.482Z,78.03
2018-08-02T01:40:26.895Z,77.84
2018-08-02T01:41:27.933Z,77.75
2018-08-02T01:42:26.485Z,77.94
2018-08-02T01:43:25.251Z,77.94
2018-08-02T01:44:25.220Z,77.94
2018-08-02T01:45:25.195Z,78.42
2018-08-02T01:46:25.169Z,78.42
2018-08-02T01:47:25.152Z,78.46
2018-08-02T01:48:25.124Z,78.56
2018-08-02T01:49:25.125Z,78.56
2018-08-02T01:50:25.108Z,78.08
2018-08-02T01:51:25.065Z,77.69
2018-08-02T01:52:25.033Z,78.46
2018-08-02T01:53:25.017Z,78.36
2018-08-02T01:54:25.015Z,78.17
2018-08-02T01:55:24.978Z,77.88
2018-08-02T01:56:24.946Z,78.08
2018-08-02T01:57:24.944Z,78.46
2018-08-02T01:58:24.906Z,78.27
2018-08-02T01:59:24.883Z,78.46
2018-08-02T02:00:24.869Z,78.36
2018-08-02T02:01:24.859Z,78.36
2018-08-02T02:02:24.849Z,78.36
2018-08-02T02:03:24.792Z,78.46
2018-08-02T02:04:24.788Z,78.65
2018-08-02T02:05:24.781Z,78.65
2018-08-02T02:06:24.723Z,78.56
2018-08-02T02:07:24.703Z,78.46
2018-08-02T02:08:24.686Z,78.56
2018-08-02T02:09:24.661Z,78.27
2018-08-02T02:10:24.629Z,78.46
2018-08-02T02:11:24.630Z,78.65
2018-08-02T02:12:24.611Z,78.27
2018-08-02T02:13:24.556Z,79.03
2018-08-02T02:14:24.564Z,79.23
2018-08-02T02:15:24.519Z,79.03
2018-08-02T02:16:24.527Z,79.13
2018-08-02T02:17:24.467Z,78.65
2018-08-02T02:18:24.479Z,78.46
2018-08-02T02:19:24.430Z,78.46
2018-08-02T02:20:24.409Z,78.75
2018-08-02T02:21:24.397Z,79.00
2018-08-02T02:22:24.357Z,78.61
2018-08-02T02:23:24.344Z,79.03
2018-08-02T02:24:25.071Z,79.33
2018-08-02T02:25:24.304Z,79.33
2018-08-02T02:26:24.272Z,78.94
2018-08-02T02:27:24.250Z,78.75
2018-08-02T02:28:24.230Z,78.94
2018-08-02T02:29:24.243Z,79.13
2018-08-02T02:30:24.191Z,79.43
2018-08-02T02:31:24.164Z,79.23
2018-08-02T02:32:24.155Z,79.48
2018-08-02T02:33:24.111Z,79.38
2018-08-02T02:34:24.117Z,79.58
2018-08-02T02:35:24.076Z,79.00
2018-08-02T02:36:24.058Z,79.28
2018-08-02T02:37:24.020Z,79.00
2018-08-02T02:38:24.015Z,79.28
2018-08-02T02:39:24.007Z,79.52
2018-08-02T02:40:23.959Z,79.67
2018-08-02T02:41:23.933Z,79.67
2018-08-02T02:42:23.926Z,79.86
2018-08-02T02:43:23.891Z,79.77
2018-08-02T02:44:23.866Z,79.58
2018-08-02T02:45:23.859Z,79.86
2018-08-02T02:46:23.848Z,80.25
2018-08-02T02:47:23.801Z,80.06
2018-08-02T02:48:23.782Z,80.44
2018-08-02T02:49:25.372Z,80.35
2018-08-02T02:50:24.634Z,80.06
2018-08-02T02:51:25.344Z,80.83
2018-08-02T02:52:23.700Z,80.35
2018-08-02T02:53:23.680Z,80.63
2018-08-02T02:54:23.644Z,81.02
2018-08-02T02:55:23.623Z,80.83
2018-08-02T02:56:23.624Z,80.83
2018-08-02T02:57:23.596Z,80.35
2018-08-02T02:58:23.558Z,80.54
2018-08-02T02:59:23.531Z,81.12
2018-08-02T03:00:23.519Z,80.35
2018-08-02T03:01:23.492Z,80.25
2018-08-02T03:02:23.467Z,80.35
2018-08-02T03:03:23.455Z,80.63
2018-08-02T03:04:23.417Z,80.98
2018-08-02T03:05:23.405Z,81.27
2018-08-02T03:06:23.398Z,81.75
2018-08-02T03:07:23.358Z,81.46
2018-08-02T03:08:23.333Z,82.32
2018-08-02T03:09:23.312Z,82.42
2018-08-02T03:10:23.291Z,82.04
2018-08-02T03:11:23.269Z,81.84
2018-08-02T03:12:23.245Z,82.52
2018-08-02T03:13:23.232Z,82.04
2018-08-02T03:14:23.192Z,81.75
2018-08-02T03:15:23.169Z,82.14
2018-08-02T03:16:23.155Z,81.37
2018-08-02T03:17:23.125Z,81.65
2018-08-02T03:18:23.107Z,82.04
2018-08-02T03:19:23.096Z,81.94
2018-08-02T03:20:23.063Z,82.14
2018-08-02T03:21:23.041Z,83.29
2018-08-02T03:22:23.004Z,83.09
2018-08-02T03:23:22.996Z,83.00
2018-08-02T03:24:22.994Z,82.32
2018-08-02T03:25:22.941Z,83.00
2018-08-02T03:26:22.929Z,82.81
2018-08-02T03:27:22.908Z,82.81
2018-08-02T03:28:22.872Z,83.09
2018-08-02T03:29:22.871Z,82.04
2018-08-02T03:30:22.950Z,82.42
2018-08-02T03:31:22.828Z,82.61
2018-08-02T03:32:22.788Z,82.23
2018-08-02T03:33:22.767Z,82.52
2018-08-02T03:34:22.742Z,83.09
2018-08-02T03:35:22.728Z,82.90
2018-08-02T03:36:22.697Z,82.90
2018-08-02T03:37:22.677Z,83.09
2018-08-02T03:38:22.661Z,83.19
2018-08-02T03:39:22.629Z,82.81
2018-08-02T03:40:22.601Z,82.71
2018-08-02T03:41:22.585Z,83.09
2018-08-02T03:42:22.585Z,83.19
2018-08-02T03:43:22.533Z,83.29
2018-08-02T03:44:22.534Z,83.58
2018-08-02T03:45:22.485Z,83.29
2018-08-02T03:46:22.507Z,83.58
2018-08-02T03:47:22.451Z,83.48
2018-08-02T03:48:22.429Z,83.77
2018-08-02T03:49:22.416Z,83.67
2018-08-02T03:50:22.390Z,83.67
2018-08-02T03:51:22.353Z,84.25
2018-08-02T03:52:22.334Z,83.58
2018-08-02T03:53:22.311Z,83.67
2018-08-02T03:54:22.337Z,83.58
2018-08-02T03:55:22.266Z,83.77
2018-08-02T03:56:22.239Z,84.25
2018-08-02T03:57:22.238Z,84.34
2018-08-02T03:58:22.203Z,84.25
2018-08-02T03:59:22.190Z,83.86
2018-08-02T04:00:22.168Z,84.06
2018-08-02T04:01:22.127Z,84.06
2018-08-02T04:02:22.114Z,84.16
2018-08-02T04:03:22.079Z,84.25
2018-08-02T04:04:22.058Z,84.34
2018-08-02T04:05:22.060Z,85.02
2018-08-02T04:06:22.019Z,84.83
2018-08-02T04:07:21.994Z,84.63
2018-08-02T04:08:21.963Z,84.83
2018-08-02T04:09:21.936Z,84.54
2018-08-02T04:10:21.915Z,84.73
2018-08-02T04:11:21.891Z,84.54
2018-08-02T04:12:21.874Z,84.54
2018-08-02T04:13:21.884Z,84.73
2018-08-02T04:14:21.829Z,84.54
2018-08-02T04:15:21.825Z,84.63
2018-08-02T04:16:21.781Z,85.11
2018-08-02T04:17:21.780Z,84.83
2018-08-02T04:18:21.734Z,84.25
2018-08-02T04:19:21.729Z,84.44
2018-08-02T04:20:21.709Z,84.73
2018-08-02T04:21:21.677Z,84.63
2018-08-02T04:22:21.655Z,84.54
2018-08-02T04:23:21.638Z,84.83
2018-08-02T04:24:21.593Z,84.34
2018-08-02T04:25:21.580Z,85.11
2018-08-02T04:26:21.574Z,84.92
2018-08-02T04:27:21.535Z,84.54
2018-08-02T04:28:21.531Z,84.83
2018-08-02T04:29:21.491Z,84.73
2018-08-02T04:30:21.526Z,83.96
2018-08-02T04:31:21.444Z,84.34
2018-08-02T04:32:21.420Z,85.11
2018-08-02T04:33:21.406Z,84.83
2018-08-02T04:34:21.382Z,84.54
2018-08-02T04:35:21.348Z,85.11
2018-08-02T04:36:21.324Z,84.44
2018-08-02T04:37:21.343Z,84.63
2018-08-02T04:38:21.285Z,84.73
2018-08-02T04:39:21.252Z,84.58
2018-08-02T04:40:21.235Z,84.77
2018-08-02T04:41:21.218Z,84.67
2018-08-02T04:42:21.198Z,83.72
2018-08-02T04:43:21.175Z,84.00
2018-08-02T04:44:21.162Z,84.19
2018-08-02T04:45:21.160Z,84.29
2018-08-02T04:46:21.124Z,84.19
2018-08-02T04:47:21.078Z,84.10
2018-08-02T04:48:21.053Z,83.81
2018-08-02T04:49:21.047Z,83.23
2018-08-02T04:50:21.025Z,83.72
2018-08-02T04:51:21.030Z,84.10
2018-08-02T04:52:20.971Z,83.62
2018-08-02T04:53:20.945Z,83.14
2018-08-02T04:54:20.922Z,83.14
2018-08-02T04:55:20.919Z,82.98
2018-08-02T04:56:20.872Z,83.28
2018-08-02T04:57:20.855Z,82.17
2018-08-02T04:58:20.826Z,82.21
2018-08-02T04:59:20.796Z,82.89
2018-08-02T05:00:20.785Z,82.65
2018-08-02T05:01:20.810Z,82.21
2018-08-02T05:02:20.734Z,82.12
2018-08-02T05:03:20.723Z,82.31
2018-08-02T05:04:20.702Z,81.93
2018-08-02T05:05:20.697Z,81.45
2018-08-02T05:06:20.847Z,82.50
2018-08-02T05:07:20.646Z,81.63
2018-08-02T05:08:20.600Z,81.93
2018-08-02T05:09:20.588Z,81.45
2018-08-02T05:10:20.585Z,81.25
2018-08-02T05:11:20.564Z,81.45
2018-08-02T05:12:20.516Z,81.45
2018-08-02T05:13:20.549Z,81.63
2018-08-02T05:14:20.489Z,81.93
2018-08-02T05:15:20.474Z,82.21
2018-08-02T05:16:20.455Z,82.02
2018-08-02T05:17:20.485Z,81.16
2018-08-02T05:18:20.402Z,81.06
2018-08-02T05:19:20.358Z,81.06
2018-08-02T05:20:20.358Z,80.87
2018-08-02T05:21:20.350Z,81.20
2018-08-02T05:22:20.336Z,81.25
2018-08-02T05:23:20.272Z,81.25
2018-08-02T05:24:20.256Z,81.25
2018-08-02T05:25:20.243Z,80.96
2018-08-02T05:26:20.201Z,82.16
2018-08-02T05:27:20.192Z,80.52
2018-08-02T05:28:20.168Z,80.52
2018-08-02T05:29:20.134Z,80.04
2018-08-02T05:30:20.126Z,80.23
2018-08-02T05:31:20.100Z,79.94
2018-08-02T05:32:20.095Z,79.46
2018-08-02T05:33:20.043Z,80.04
2018-08-02T05:34:20.100Z,79.94
2018-08-02T05:35:20.193Z,79.75
2018-08-02T05:36:20.649Z,79.36
2018-08-02T05:37:19.951Z,79.56
2018-08-02T05:38:19.945Z,79.56
2018-08-02T05:39:19.910Z,79.85
2018-08-02T05:40:19.891Z,79.46
2018-08-02T05:41:19.871Z,79.08
2018-08-02T05:42:19.880Z,79.27
2018-08-02T05:43:19.832Z,78.88
2018-08-02T05:44:19.796Z,78.69
2018-08-02T05:45:19.793Z,78.59
2018-08-02T05:46:19.771Z,79.21
2018-08-02T05:47:19.733Z,78.83
2018-08-02T05:48:19.707Z,79.11
2018-08-02T05:49:19.728Z,78.73
2018-08-02T05:50:19.718Z,78.06
2018-08-02T05:51:19.642Z,77.86
2018-08-02T05:52:19.633Z,78.00
2018-08-02T05:53:19.610Z,77.51
2018-08-02T05:54:19.592Z,77.13
2018-08-02T05:55:19.742Z,76.75
2018-08-02T05:56:19.540Z,77.13
2018-08-02T05:57:19.511Z,76.45
2018-08-02T05:58:19.491Z,77.23
2018-08-02T05:59:19.498Z,75.68
2018-08-02T06:00:19.449Z,75.78
2018-08-02T06:01:19.430Z,75.49
2018-08-02T06:02:19.430Z,75.59
2018-08-02T06:03:19.387Z,75.01
2018-08-02T06:04:19.377Z,75.78
2018-08-02T06:05:19.355Z,75.78
2018-08-02T06:06:19.325Z,76.07
2018-08-02T06:07:19.310Z,76.26
2018-08-02T06:08:19.288Z,75.82
2018-08-02T06:09:19.259Z,75.72
2018-08-02T06:10:19.233Z,76.01
2018-08-02T06:11:19.202Z,76.20
2018-08-02T06:12:19.202Z,76.01
2018-08-02T06:13:19.161Z,75.82
2018-08-02T06:14:19.156Z,76.01
2018-08-02T06:15:19.130Z,75.43
2018-08-02T06:16:19.100Z,75.53
2018-08-02T06:17:19.318Z,76.10
2018-08-02T06:18:19.622Z,75.53
2018-08-02T06:19:19.139Z,75.62
2018-08-02T06:20:19.019Z,75.37
2018-08-02T06:21:19.021Z,75.27
2018-08-02T06:22:18.975Z,75.27
2018-08-02T06:23:18.958Z,75.67
2018-08-02T06:24:18.949Z,75.18
2018-08-02T06:25:18.915Z,75.18
2018-08-02T06:26:18.881Z,75.18
2018-08-02T06:27:18.881Z,74.99
2018-08-02T06:28:18.853Z,74.79
2018-08-02T06:29:18.879Z,74.60
2018-08-02T06:30:18.863Z,74.79
2018-08-02T06:31:18.829Z,73.96
2018-08-02T06:32:18.770Z,74.44
2018-08-02T06:33:18.803Z,74.16
2018-08-02T06:34:19.621Z,74.35
2018-08-02T06:35:18.696Z,73.86
2018-08-02T06:36:18.696Z,73.67
2018-08-02T06:37:18.670Z,73.48
2018-08-02T06:38:18.626Z,73.32
2018-08-02T06:39:18.618Z,73.48
2018-08-02T06:40:18.586Z,73.48
2018-08-02T06:41:18.576Z,73.42
2018-08-02T06:42:18.555Z,73.42
2018-08-02T06:43:18.550Z,73.42
2018-08-02T06:44:18.536Z,73.42
2018-08-02T06:45:18.478Z,73.42
2018-08-02T06:46:18.462Z,73.13
2018-08-02T06:47:18.453Z,73.13
2018-08-02T06:48:18.418Z,73.22
2018-08-02T06:49:18.402Z,72.36
2018-08-02T06:50:18.390Z,72.88
2018-08-02T06:51:18.361Z,72.58
2018-08-02T06:52:18.335Z,72.55
2018-08-02T06:53:18.313Z,72.88
2018-08-02T06:54:18.309Z,72.30
2018-08-02T06:55:18.274Z,72.68
2018-08-02T06:56:18.248Z,72.49
2018-08-02T06:57:18.230Z,72.78
2018-08-02T06:58:18.220Z,72.62
2018-08-02T06:59:18.193Z,72.39
2018-08-02T07:00:18.175Z,72.72
2018-08-02T07:01:18.148Z,72.30
2018-08-02T07:02:18.148Z,72.33
2018-08-02T07:03:18.107Z,72.81
2018-08-02T07:04:18.083Z,72.14
2018-08-02T07:05:18.085Z,72.14
2018-08-02T07:06:18.054Z,72.24
2018-08-02T07:07:18.024Z,72.42
2018-08-02T07:08:18.020Z,71.56
2018-08-02T07:09:17.986Z,71.56
2018-08-02T07:10:17.963Z,71.08
2018-08-02T07:11:17.951Z,71.30
2018-08-02T07:12:17.932Z,71.50
2018-08-02T07:13:17.908Z,71.50
2018-08-02T07:14:17.894Z,71.30
2018-08-02T07:15:17.857Z,71.50
2018-08-02T07:16:17.851Z,71.30
2018-08-02T07:17:17.848Z,70.82
2018-08-02T07:18:17.829Z,70.72
2018-08-02T07:19:17.787Z,70.86
2018-08-02T07:20:17.770Z,70.82
2018-08-02T07:21:17.739Z,70.66
2018-08-02T07:22:17.718Z,70.37
2018-08-02T07:23:17.709Z,70.47
2018-08-02T07:24:17.686Z,70.37
2018-08-02T07:25:17.660Z,70.47
2018-08-02T07:26:17.647Z,69.98
2018-08-02T07:27:17.619Z,70.27
2018-08-02T07:28:17.624Z,70.18
2018-08-02T07:29:17.587Z,70.18
2018-08-02T07:30:17.561Z,70.56
2018-08-02T07:31:17.545Z,70.86
2018-08-02T07:32:17.521Z,71.14
2018-08-02T07:33:17.505Z,70.66
2018-08-02T07:34:17.478Z,70.27
2018-08-02T07:35:17.466Z,70.37
2018-08-02T07:36:17.450Z,70.40
2018-08-02T07:37:17.422Z,69.89
2018-08-02T07:38:17.419Z,69.73
2018-08-02T07:39:17.386Z,70.11
2018-08-02T07:40:17.364Z,69.34
2018-08-02T07:41:17.338Z,69.24
2018-08-02T07:42:17.322Z,69.34
2018-08-02T07:43:18.264Z,69.34
2018-08-02T07:44:17.280Z,68.95
2018-08-02T07:45:17.270Z,69.15
2018-08-02T07:46:17.251Z,68.76
2018-08-02T07:47:17.238Z,69.18
2018-08-02T07:48:17.211Z,69.08
2018-08-02T07:49:17.187Z,68.99
2018-08-02T07:50:17.171Z,69.27
2018-08-02T07:51:17.146Z,68.89
2018-08-02T07:52:17.131Z,69.08
2018-08-02T07:53:17.112Z,67.82
2018-08-02T07:54:17.093Z,68.21
2018-08-02T07:55:17.070Z,67.92
2018-08-02T07:56:17.082Z,68.30
2018-08-02T07:57:17.050Z,67.72
2018-08-02T07:58:17.012Z,67.53
2018-08-02T07:59:16.990Z,67.44
2018-08-02T08:00:16.973Z,67.44
2018-08-02T08:01:16.951Z,67.72
2018-08-02T08:02:16.939Z,67.57
2018-08-02T08:03:16.911Z,67.82
2018-08-02T08:04:16.899Z,67.85
2018-08-02T08:05:16.886Z,67.37
2018-08-02T08:06:16.864Z,67.47
2018-08-02T08:07:16.858Z,66.89
2018-08-02T08:08:16.825Z,67.57
2018-08-02T08:09:16.804Z,67.57
2018-08-02T08:10:16.790Z,66.79
2018-08-02T08:11:16.766Z,67.27
2018-08-02T08:12:16.741Z,66.99
2018-08-02T08:13:16.720Z,66.20
2018-08-02T08:14:16.706Z,66.53
2018-08-02T08:15:16.692Z,66.50
2018-08-02T08:16:16.691Z,66.50
2018-08-02T08:17:16.658Z,66.30
2018-08-02T08:18:16.656Z,66.50
2018-08-02T08:19:16.610Z,67.08
2018-08-02T08:20:16.645Z,67.31
2018-08-02T08:21:16.582Z,67.31
2018-08-02T08:22:16.592Z,67.11
2018-08-02T08:23:16.570Z,66.14
2018-08-02T08:24:16.520Z,65.85
2018-08-02T08:25:16.495Z,66.05
2018-08-02T08:26:16.503Z,65.95
2018-08-02T08:27:16.467Z,65.75
2018-08-02T08:28:16.441Z,65.27
2018-08-02T08:29:16.446Z,65.59
2018-08-02T08:30:17.234Z,65.95
2018-08-02T08:31:16.429Z,65.59
2018-08-02T08:32:16.675Z,65.11
2018-08-02T08:33:16.364Z,65.11
2018-08-02T08:34:16.349Z,65.40
2018-08-02T08:35:16.316Z,65.20
2018-08-02T08:36:16.443Z,65.30
2018-08-02T08:37:23.623Z,64.43
2018-08-02T08:38:16.285Z,64.53
2018-08-02T08:39:16.247Z,64.53
2018-08-02T08:40:16.219Z,64.62
2018-08-02T08:41:16.258Z,64.62
2018-08-02T08:42:16.197Z,64.53
2018-08-02T08:43:16.170Z,64.72
2018-08-02T08:44:16.165Z,65.33
2018-08-02T08:45:16.333Z,64.95
2018-08-02T08:46:16.372Z,64.85
2018-08-02T08:47:16.640Z,64.65
2018-08-02T08:48:16.081Z,64.17
2018-08-02T08:49:16.411Z,64.07
2018-08-02T08:50:16.048Z,63.29
2018-08-02T08:51:16.026Z,63.10
2018-08-02T08:52:16.030Z,62.81
2018-08-02T08:53:15.993Z,63.23
2018-08-02T08:54:15.987Z,63.01
2018-08-02T08:55:15.946Z,63.62
2018-08-02T08:56:15.932Z,63.23
2018-08-02T08:57:15.913Z,63.13
2018-08-02T08:58:15.914Z,62.55
2018-08-02T08:59:15.875Z,62.26
2018-08-02T09:00:15.864Z,62.45
2018-08-02T09:01:15.856Z,62.07
2018-08-02T09:02:15.829Z,61.68
2018-08-02T09:03:15.841Z,61.68
2018-08-02T09:04:15.787Z,62.07
2018-08-02T09:05:15.775Z,61.97
2018-08-02T09:06:15.780Z,61.61
2018-08-02T09:07:15.743Z,61.22
2018-08-02T09:08:15.723Z,61.22
2018-08-02T09:09:15.720Z,60.64
2018-08-02T09:10:15.700Z,60.93
2018-08-02T09:11:15.660Z,61.22
2018-08-02T09:12:15.639Z,60.83
2018-08-02T09:13:15.633Z,61.12
2018-08-02T09:14:15.638Z,61.61
2018-08-02T09:15:15.592Z,62.10
2018-08-02T09:16:15.572Z,61.48
2018-08-02T09:17:15.606Z,61.41
2018-08-02T09:18:15.543Z,61.71
2018-08-02T09:19:15.524Z,61.32
2018-08-02T09:20:15.507Z,60.93
2018-08-02T09:21:15.489Z,61.12
2018-08-02T09:22:15.485Z,60.74
2018-08-02T09:23:15.461Z,60.93
2018-08-02T09:24:15.443Z,60.08
2018-08-02T09:25:15.415Z,60.15
2018-08-02T09:26:15.403Z,60.35
2018-08-02T09:27:15.382Z,60.15
2018-08-02T09:28:15.369Z,61.12
2018-08-02T09:29:15.345Z,61.32
2018-08-02T09:30:15.333Z,60.93
2018-08-02T09:31:15.325Z,60.64
2018-08-02T09:32:15.363Z,60.54
2018-08-02T09:33:15.368Z,60.44
2018-08-02T09:34:15.250Z,61.02
2018-08-02T09:35:15.249Z,60.44
2018-08-02T09:36:15.239Z,59.67
2018-08-02T09:37:15.216Z,59.79
2018-08-02T09:38:15.183Z,58.82
2018-08-02T09:39:15.189Z,58.72
2018-08-02T09:40:15.146Z,58.36
2018-08-02T09:41:15.132Z,58.36
2018-08-02T09:42:15.120Z,58.36
2018-08-02T09:43:15.108Z,58.46
2018-08-02T09:44:15.094Z,57.97
2018-08-02T09:45:15.106Z,58.07
2018-08-02T09:46:15.046Z,58.36
2018-08-02T09:47:15.047Z,58.36
2018-08-02T09:48:15.014Z,57.97
2018-08-02T09:49:14.988Z,58.26
2018-08-02T09:50:14.978Z,58.17
2018-08-02T09:51:14.971Z,58.07
2018-08-02T09:52:14.954Z,57.87
2018-08-02T09:53:14.930Z,57.59
2018-08-02T09:54:14.912Z,57.59
2018-08-02T09:55:14.891Z,57.20
2018-08-02T09:56:14.879Z,57.78
2018-08-02T09:57:14.907Z,58.17
2018-08-02T09:58:14.841Z,57.68
2018-08-02T09:59:14.839Z,57.22
2018-08-02T10:00:14.806Z,57.22
2018-08-02T10:01:14.808Z,57.03
2018-08-02T10:02:14.770Z,57.12
2018-08-02T10:03:14.761Z,56.54
2018-08-02T10:04:14.741Z,56.93
2018-08-02T10:05:14.732Z,56.93
2018-08-02T10:06:14.694Z,57.81
2018-08-02T10:07:14.681Z,57.51
2018-08-02T10:08:14.682Z,57.61
2018-08-02T10:09:14.658Z,56.93
2018-08-02T10:10:14.664Z,57.61
2018-08-02T10:11:14.680Z,58.00
2018-08-02T10:12:14.599Z,57.12
2018-08-02T10:13:14.583Z,57.22
2018-08-02T10:14:14.565Z,57.03
2018-08-02T10:15:14.552Z,57.22
2018-08-02T10:16:14.526Z,56.93
2018-08-02T10:17:14.525Z,57.22
2018-08-02T10:18:14.575Z,57.32
2018-08-02T10:19:14.603Z,56.76
2018-08-02T10:20:14.577Z,57.06
2018-08-02T10:21:14.533Z,56.76
2018-08-02T10:22:14.490Z,56.86
2018-08-02T10:23:14.477Z,56.96
2018-08-02T10:24:14.502Z,56.67
2018-08-02T10:25:14.442Z,56.67
2018-08-02T10:26:14.363Z,56.96
2018-08-02T10:27:14.344Z,56.76
2018-08-02T10:28:14.322Z,56.86
2018-08-02T10:29:14.302Z,56.57
2018-08-02T10:30:14.310Z,57.15
2018-08-02T10:31:14.304Z,57.06
2018-08-02T10:32:14.260Z,56.86
2018-08-02T10:33:14.253Z,57.74
2018-08-02T10:34:14.237Z,56.76
2018-08-02T10:35:14.209Z,57.06
2018-08-02T10:36:14.184Z,57.32
2018-08-02T10:37:14.185Z,57.25
2018-08-02T10:38:14.174Z,57.71
2018-08-02T10:39:14.165Z,57.12
2018-08-02T10:40:14.177Z,57.71
2018-08-02T10:41:14.115Z,57.61
2018-08-02T10:42:14.095Z,57.71
2018-08-02T10:43:14.091Z,57.90
2018-08-02T10:44:14.060Z,57.32
2018-08-02T10:45:14.028Z,57.06
2018-08-02T10:46:14.039Z,57.15
2018-08-02T10:47:14.029Z,56.86
2018-08-02T10:48:13.992Z,56.86
2018-08-02T10:49:14.134Z,57.06
2018-08-02T10:50:13.964Z,57.18
2018-08-02T10:51:13.965Z,56.99
2018-08-02T10:52:13.954Z,56.99
2018-08-02T10:53:13.904Z,56.30
2018-08-02T10:54:13.889Z,56.70
2018-08-02T10:55:13.895Z,56.21
2018-08-02T10:56:13.933Z,56.30
2018-08-02T10:57:13.882Z,55.72
2018-08-02T10:58:13.817Z,55.04
2018-08-02T10:59:13.810Z,55.33
2018-08-02T11:00:13.793Z,55.23
2018-08-02T11:01:13.765Z,55.52
2018-08-02T11:02:13.788Z,55.43
2018-08-02T11:03:13.749Z,55.62
2018-08-02T11:04:13.738Z,55.46
2018-08-02T11:05:13.712Z,55.62
2018-08-02T11:06:13.688Z,56.30
2018-08-02T11:07:13.683Z,55.46
2018-08-02T11:08:13.681Z,56.40
2018-08-02T11:09:13.666Z,55.62
2018-08-02T11:10:13.659Z,55.52
2018-08-02T11:11:13.599Z,55.82
2018-08-02T11:12:13.611Z,55.62
2018-08-02T11:13:13.568Z,55.23
2018-08-02T11:14:13.548Z,56.50
2018-08-02T11:15:13.532Z,56.04
2018-08-02T11:16:13.517Z,55.46
2018-08-02T11:17:13.519Z,55.55
2018-08-02T11:18:13.498Z,54.09
2018-08-02T11:19:13.467Z,53.53
2018-08-02T11:20:13.449Z,54.09
2018-08-02T11:21:13.462Z,54.09
2018-08-02T11:22:13.468Z,53.80
2018-08-02T11:23:13.407Z,53.11
2018-08-02T11:24:13.395Z,53.14
2018-08-02T11:25:13.370Z,53.11
2018-08-02T11:26:13.369Z,53.70
2018-08-02T11:27:13.356Z,53.50
2018-08-02T11:28:13.375Z,53.99
2018-08-02T11:29:13.309Z,54.11
2018-08-02T11:30:13.285Z,53.92
2018-08-02T11:31:13.291Z,53.53
2018-08-02T11:32:13.256Z,53.05
2018-08-02T11:33:13.253Z,52.95
2018-08-02T11:34:13.239Z,53.17
2018-08-02T11:35:13.213Z,52.48
2018-08-02T11:36:13.225Z,52.58
2018-08-02T11:37:13.173Z,52.68
2018-08-02T11:38:13.168Z,52.19
2018-08-02T11:39:13.142Z,52.29
2018-08-02T11:40:13.140Z,51.80
2018-08-02T11:41:13.114Z,52.02
2018-08-02T11:42:13.110Z,51.73
2018-08-02T11:43:13.087Z,51.92
2018-08-02T11:44:13.070Z,51.73
2018-08-02T11:45:13.053Z,51.37
2018-08-02T11:46:13.055Z,50.88
2018-08-02T11:47:13.030Z,51.07
2018-08-02T11:48:13.017Z,50.49
2018-08-02T11:49:12.997Z,50.49
2018-08-02T11:50:12.984Z,50.78
2018-08-02T11:51:13.063Z,51.37
2018-08-02T11:52:12.944Z,50.98
2018-08-02T11:53:12.934Z,50.98
2018-08-02T11:54:12.914Z,50.88
2018-08-02T11:55:12.893Z,49.90
2018-08-02T11:56:12.894Z,50.39
2018-08-02T11:57:12.953Z,50.78
2018-08-02T11:58:12.864Z,50.78
2018-08-02T11:59:12.839Z,50.98
2018-08-02T12:00:12.822Z,50.29
2018-08-02T12:01:12.803Z,50.32
2018-08-02T12:02:12.840Z,49.63
2018-08-02T12:03:12.815Z,49.14
2018-08-02T12:04:12.776Z,48.83
2018-08-02T12:05:12.749Z,49.61
2018-08-02T12:06:12.740Z,50.02
2018-08-02T12:07:12.739Z,50.12
2018-08-02T12:08:12.717Z,50.81
2018-08-02T12:09:12.684Z,49.85
2018-08-02T12:10:12.680Z,49.04
2018-08-02T12:11:12.656Z,48.46
2018-08-02T12:12:12.660Z,48.26
2018-08-02T12:13:12.627Z,48.48
2018-08-02T12:14:12.612Z,48.19
2018-08-02T12:15:12.616Z,47.50
2018-08-02T12:16:12.639Z,47.50
2018-08-02T12:17:12.565Z,47.80
2018-08-02T12:18:12.558Z,48.28
2018-08-02T12:19:12.564Z,47.70
2018-08-02T12:20:12.541Z,47.80
2018-08-02T12:21:12.510Z,47.53
2018-08-02T12:22:12.541Z,47.72
2018-08-02T12:23:12.482Z,46.65
2018-08-02T12:24:12.526Z,46.65
2018-08-02T12:25:12.456Z,46.65
2018-08-02T12:26:12.442Z,46.65
2018-08-02T12:27:12.442Z,45.76
2018-08-02T12:28:12.424Z,45.97
2018-08-02T12:29:12.552Z,46.16
2018-08-02T12:30:12.428Z,44.69
2018-08-02T12:31:12.367Z,44.49
2018-08-02T12:32:12.358Z,44.87
2018-08-02T12:33:12.350Z,45.26
2018-08-02T12:34:12.334Z,45.55
2018-08-02T12:35:12.308Z,45.47
2018-08-02T12:36:12.297Z,45.76
2018-08-02T12:37:12.292Z,45.67
2018-08-02T12:38:12.277Z,45.97
2018-08-02T12:39:12.264Z,45.18
2018-08-02T12:40:12.290Z,45.79
2018-08-02T12:41:12.223Z,45.08
2018-08-02T12:42:12.230Z,45.30
2018-08-02T12:43:12.192Z,45.69
2018-08-02T12:44:12.201Z,44.91
2018-08-02T12:45:12.173Z,44.42
2018-08-02T12:46:12.170Z,44.42
2018-08-02T12:47:12.201Z,44.13
2018-08-02T12:48:12.191Z,44.32
2018-08-02T12:49:12.108Z,44.42
2018-08-02T12:50:12.118Z,44.71
2018-08-02T12:51:12.083Z,45.50
2018-08-02T12:52:12.090Z,45.10